Time;durP1;ratioP1;P1;durP2;ratioP2;P2;SDS_P1;SDS_P2;PMS_P1;PMS_P2;Temp;Humidity;BMP_temperature;BMP_pressure;BME280_temperature;BME280_humidity;BME280_pressure;Samples;Min_cycle;Max_cycle;Signal;HPM_P1;HPM_P2
2021/12/30 00:03:49;;;;;;;201.88;61.10;;;;;;;;;;8264542;28;20066;-76
2021/12/30 00:07:52;;;;;;;197.23;56.45;;;;;;;;;;8264368;28;20046;-76
2021/12/30 00:11:55;;;;;;;148.73;46.25;;;;;;;;;;8261943;28;20051;-75
2021/12/30 00:15:57;;;;;;;159.40;47.60;;;;;;;;;;8265197;28;20054;-75
2021/12/30 00:20:02;;;;;;;152.15;45.95;;;;;;;;;;8264826;28;20054;-76
2021/12/30 00:24:05;;;;;;;130.77;42.83;;;;;;;;;;8264276;28;20141;-76
2021/12/30 00:28:10;;;;;;;148.65;46.40;;;;;;;;;;8264199;28;20046;-75
2021/12/30 00:32:13;;;;;;;147.32;48.45;;;;;;;;;;8264240;28;20058;-77
2021/12/30 00:36:17;;;;;;;139.35;42.63;;;;;;;;;;8264408;28;20070;-75
2021/12/30 00:40:19;;;;;;;158.65;44.63;;;;;;;;;;8264447;28;20450;-76
2021/12/30 00:44:22;;;;;;;144.15;43.50;;;;;;;;;;8263865;28;20054;-76
2021/12/30 00:48:25;;;;;;;168.10;50.90;;;;;;;;;;8266671;28;20058;-76
2021/12/30 00:52:30;;;;;;;143.75;47.15;;;;;;;;;;8268943;28;20042;-76
2021/12/30 00:56:32;;;;;;;123.97;42.25;;;;;;;;;;8269472;28;20089;-76
2021/12/30 01:00:37;;;;;;;151.32;48.80;;;;;;;;;;8269784;28;20050;-76
2021/12/30 01:04:39;;;;;;;136.60;41.97;;;;;;;;;;8269837;28;20042;-76
2021/12/30 01:08:43;;;;;;;133.00;41.13;;;;;;;;;;8269154;28;20054;-76
2021/12/30 01:12:46;;;;;;;167.07;51.72;;;;;;;;;;8264740;28;20145;-75
2021/12/30 01:16:53;;;;;;;151.27;50.05;;;;;;;;;;8262086;28;20046;-75
2021/12/30 01:20:56;;;;;;;149.35;50.17;;;;;;;;;;8263832;28;20061;-76
2021/12/30 01:25:03;;;;;;;132.25;49.03;;;;;;;;;;8262753;28;20131;-75
2021/12/30 01:29:05;;;;;;;134.60;49.90;;;;;;;;;;8262840;28;20497;-73
2021/12/30 01:33:08;;;;;;;134.27;44.50;;;;;;;;;;8264358;28;20081;-73
2021/12/30 01:37:13;;;;;;;116.63;40.72;;;;;;;;;;8264180;28;20129;-76
2021/12/30 01:41:17;;;;;;;127.75;42.78;;;;;;;;;;8263758;28;20046;-76
2021/12/30 01:45:20;;;;;;;133.50;42.67;;;;;;;;;;8261748;28;20049;-76
2021/12/30 01:49:24;;;;;;;137.00;48.28;;;;;;;;;;8260968;28;20062;-76
2021/12/30 01:53:26;;;;;;;128.75;43.15;;;;;;;;;;8262209;28;20056;-75
2021/12/30 01:57:30;;;;;;;132.05;45.60;;;;;;;;;;8263284;28;20058;-75
2021/12/30 02:01:33;;;;;;;115.63;40.85;;;;;;;;;;8260025;28;20045;-75
2021/12/30 02:05:38;;;;;;;135.68;45.88;;;;;;;;;;8261767;28;20093;-74
2021/12/30 02:09:40;;;;;;;134.23;43.42;;;;;;;;;;8261722;28;20760;-75
2021/12/30 02:13:46;;;;;;;128.60;44.25;;;;;;;;;;8260561;28;20093;-77
2021/12/30 02:17:51;;;;;;;116.50;41.47;;;;;;;;;;8261791;28;20632;-76
2021/12/30 02:21:55;;;;;;;140.32;45.00;;;;;;;;;;8261543;28;20406;-77
2021/12/30 02:26:00;;;;;;;140.38;46.17;;;;;;;;;;8261194;28;20493;-77
2021/12/30 02:30:04;;;;;;;133.90;45.60;;;;;;;;;;8261060;28;20150;-76
2021/12/30 02:34:07;;;;;;;113.78;41.33;;;;;;;;;;8261688;28;22053;-76
2021/12/30 02:38:12;;;;;;;111.13;43.13;;;;;;;;;;8260653;28;20042;-77
2021/12/30 02:42:14;;;;;;;153.88;53.15;;;;;;;;;;8260288;28;20061;-77
2021/12/30 02:46:22;;;;;;;140.85;46.60;;;;;;;;;;8258762;28;20043;-77
2021/12/30 02:50:24;;;;;;;127.38;43.85;;;;;;;;;;8255481;28;20085;-77
2021/12/30 02:54:29;;;;;;;136.80;45.75;;;;;;;;;;8256101;28;20043;-77
2021/12/30 02:58:32;;;;;;;139.60;47.85;;;;;;;;;;8254121;28;20470;-76
2021/12/30 03:02:37;;;;;;;124.60;43.70;;;;;;;;;;8258720;28;20054;-77
2021/12/30 03:06:40;;;;;;;120.53;42.50;;;;;;;;;;8259671;28;20054;-76
2021/12/30 03:10:44;;;;;;;123.50;42.17;;;;;;;;;;8256013;28;20077;-76
2021/12/30 03:14:47;;;;;;;121.47;41.83;;;;;;;;;;8257087;28;20108;-78
2021/12/30 03:18:51;;;;;;;121.88;42.20;;;;;;;;;;8256260;28;20043;-77
2021/12/30 03:22:54;;;;;;;126.20;44.83;;;;;;;;;;8255945;28;20043;-76
2021/12/30 03:26:58;;;;;;;116.25;42.72;;;;;;;;;;8254484;28;20054;-77
2021/12/30 03:31:00;;;;;;;122.00;43.80;;;;;;;;;;8255798;28;20090;-77
2021/12/30 03:35:04;;;;;;;129.63;43.78;;;;;;;;;;8259457;28;20054;-77
2021/12/30 03:39:08;;;;;;;130.68;46.35;;;;;;;;;;8260368;28;20046;-77
2021/12/30 03:43:12;;;;;;;127.82;43.17;;;;;;;;;;8258212;28;20456;-77
2021/12/30 03:47:17;;;;;;;125.35;43.45;;;;;;;;;;8256035;28;20046;-76
2021/12/30 03:51:23;;;;;;;106.65;40.17;;;;;;;;;;8254313;28;20517;-76
2021/12/30 03:55:28;;;;;;;123.40;41.35;;;;;;;;;;8255662;28;20050;-77
2021/12/30 03:59:32;;;;;;;116.50;42.85;;;;;;;;;;8255440;28;20053;-76
2021/12/30 04:03:34;;;;;;;98.53;38.92;;;;;;;;;;8255392;28;20042;-76
2021/12/30 04:07:37;;;;;;;106.43;39.78;;;;;;;;;;8254850;28;20054;-76
2021/12/30 04:11:39;;;;;;;110.35;39.88;;;;;;;;;;8253965;28;20976;-76
2021/12/30 04:15:44;;;;;;;102.32;38.38;;;;;;;;;;8256828;28;20046;-76
2021/12/30 04:19:46;;;;;;;96.30;38.40;;;;;;;;;;8258664;28;20166;-76
2021/12/30 04:23:49;;;;;;;96.50;35.65;;;;;;;;;;8262332;28;20096;-76
2021/12/30 04:27:51;;;;;;;171.02;62.88;;;;;;;;;;8264415;28;20456;-76
2021/12/30 04:31:57;;;;;;;144.85;53.88;;;;;;;;;;8266221;28;20043;-76
2021/12/30 04:36:00;;;;;;;137.98;48.80;;;;;;;;;;8243551;28;20482;-76
2021/12/30 04:40:04;;;;;;;122.07;42.83;;;;;;;;;;8266363;28;20046;-76
2021/12/30 04:44:07;;;;;;;120.80;43.30;;;;;;;;;;8270952;28;20056;-76
2021/12/30 04:48:11;;;;;;;115.80;44.03;;;;;;;;;;8270510;28;20066;-76
2021/12/30 04:52:13;;;;;;;113.68;41.08;;;;;;;;;;8271423;28;20096;-76
2021/12/30 04:56:16;;;;;;;110.38;42.42;;;;;;;;;;8265875;28;20052;-76
2021/12/30 05:00:18;;;;;;;106.68;39.35;;;;;;;;;;8262671;28;20104;-76
2021/12/30 05:04:23;;;;;;;109.32;37.55;;;;;;;;;;8263303;28;20050;-77
2021/12/30 05:08:27;;;;;;;97.30;37.53;;;;;;;;;;8264004;28;20050;-76
2021/12/30 05:12:30;;;;;;;115.45;42.08;;;;;;;;;;8263917;28;20103;-77
2021/12/30 05:16:32;;;;;;;107.38;40.33;;;;;;;;;;8263214;28;20470;-77
2021/12/30 05:20:37;;;;;;;129.70;44.20;;;;;;;;;;8264410;28;20046;-77
2021/12/30 05:24:39;;;;;;;118.40;44.92;;;;;;;;;;8262400;28;20046;-77
2021/12/30 05:28:42;;;;;;;96.30;38.08;;;;;;;;;;8262591;28;20065;-77
2021/12/30 05:32:45;;;;;;;110.82;41.97;;;;;;;;;;8262398;28;20093;-77
2021/12/30 05:36:49;;;;;;;99.25;37.03;;;;;;;;;;8264115;28;20050;-75
2021/12/30 05:40:52;;;;;;;104.60;37.78;;;;;;;;;;8263669;28;20045;-77
2021/12/30 05:44:55;;;;;;;111.75;38.95;;;;;;;;;;8262524;28;20593;-77
2021/12/30 05:48:58;;;;;;;108.60;39.92;;;;;;;;;;8261620;28;20064;-77
2021/12/30 05:53:03;;;;;;;115.72;41.95;;;;;;;;;;8260932;28;20053;-76
2021/12/30 05:57:06;;;;;;;107.68;36.90;;;;;;;;;;8259455;28;20073;-77
2021/12/30 06:01:09;;;;;;;127.57;44.60;;;;;;;;;;8261357;28;20042;-77
2021/12/30 06:05:12;;;;;;;135.07;45.28;;;;;;;;;;8261720;28;20053;-77
2021/12/30 06:09:16;;;;;;;99.32;36.13;;;;;;;;;;8252183;28;20054;-76
2021/12/30 06:13:19;;;;;;;102.07;40.13;;;;;;;;;;8260811;28;20046;-76
2021/12/30 06:17:22;;;;;;;115.85;42.90;;;;;;;;;;8262125;28;20379;-75
2021/12/30 06:21:24;;;;;;;118.15;39.30;;;;;;;;;;8258302;28;20038;-75
2021/12/30 06:25:29;;;;;;;104.15;36.58;;;;;;;;;;8261081;28;20123;-75
2021/12/30 06:29:31;;;;;;;90.38;34.55;;;;;;;;;;8260630;28;20145;-76
2021/12/30 06:33:34;;;;;;;126.78;45.40;;;;;;;;;;8261925;28;20046;-76
2021/12/30 06:37:37;;;;;;;100.88;37.80;;;;;;;;;;8261669;28;20133;-77
2021/12/30 06:41:41;;;;;;;87.38;34.75;;;;;;;;;;8261419;28;20051;-76
2021/12/30 06:45:44;;;;;;;113.22;37.67;;;;;;;;;;8258535;28;20554;-76
2021/12/30 06:49:46;;;;;;;90.25;35.03;;;;;;;;;;8258526;28;20058;-76
2021/12/30 06:53:49;;;;;;;85.15;35.42;;;;;;;;;;8259692;28;20051;-76
2021/12/30 06:57:53;;;;;;;94.60;35.03;;;;;;;;;;8260056;28;20042;-75
2021/12/30 07:01:57;;;;;;;103.82;37.60;;;;;;;;;;8259258;28;20068;-75
2021/12/30 07:06:00;;;;;;;94.90;36.05;;;;;;;;;;8261138;28;20057;-77
2021/12/30 07:10:03;;;;;;;93.93;35.50;;;;;;;;;;8265966;28;20077;-76
2021/12/30 07:14:07;;;;;;;100.03;36.33;;;;;;;;;;8265182;28;20047;-75
2021/12/30 07:18:10;;;;;;;98.30;35.08;;;;;;;;;;8265882;28;20409;-76
2021/12/30 07:22:12;;;;;;;91.43;32.78;;;;;;;;;;8264870;28;20053;-76
2021/12/30 07:26:15;;;;;;;90.32;31.60;;;;;;;;;;8266236;28;20046;-76
2021/12/30 07:30:22;;;;;;;86.05;32.28;;;;;;;;;;8275841;28;20042;-76
2021/12/30 07:34:24;;;;;;;79.72;32.50;;;;;;;;;;8270040;28;20097;-76
2021/12/30 07:38:27;;;;;;;85.18;33.42;;;;;;;;;;8265298;28;20046;-76
2021/12/30 07:42:30;;;;;;;78.55;32.72;;;;;;;;;;8265401;28;20057;-76
2021/12/30 07:46:34;;;;;;;83.85;33.85;;;;;;;;;;8263827;28;20647;-76
2021/12/30 07:50:36;;;;;;;86.65;34.90;;;;;;;;;;8261777;28;20054;-75
2021/12/30 07:54:39;;;;;;;79.28;32.00;;;;;;;;;;8261605;28;20212;-74
2021/12/30 07:58:42;;;;;;;80.13;31.60;;;;;;;;;;8269632;28;20427;-75
2021/12/30 08:02:46;;;;;;;86.68;36.20;;;;;;;;;;8271424;28;20494;-76
2021/12/30 08:06:49;;;;;;;75.47;33.00;;;;;;;;;;8270880;28;20117;-78
2021/12/30 08:10:51;;;;;;;73.00;31.15;;;;;;;;;;8267814;28;20054;-76
2021/12/30 08:14:54;;;;;;;95.65;38.72;;;;;;;;;;8265352;28;20042;-75
2021/12/30 08:19:02;;;;;;;95.78;37.78;;;;;;;;;;8269334;28;20053;-76
2021/12/30 08:23:07;;;;;;;76.38;32.42;;;;;;;;;;8268151;28;20413;-75
2021/12/30 08:27:12;;;;;;;76.88;35.47;;;;;;;;;;8270988;28;20046;-76
2021/12/30 08:31:15;;;;;;;71.43;32.17;;;;;;;;;;8265243;28;20053;-76
2021/12/30 08:35:22;;;;;;;75.32;31.38;;;;;;;;;;8271321;28;20042;-75
2021/12/30 08:39:24;;;;;;;68.50;31.55;;;;;;;;;;8271573;28;20126;-76
2021/12/30 08:43:27;;;;;;;65.35;28.63;;;;;;;;;;8271003;28;20046;-76
2021/12/30 08:47:32;;;;;;;71.25;32.58;;;;;;;;;;8271377;28;20047;-75
2021/12/30 08:51:37;;;;;;;68.40;32.15;;;;;;;;;;8264647;28;20057;-76
2021/12/30 08:55:39;;;;;;;69.10;30.25;;;;;;;;;;8265164;28;20397;-76
2021/12/30 08:59:44;;;;;;;66.13;31.25;;;;;;;;;;8268106;28;20525;-75
2021/12/30 09:03:51;;;;;;;69.45;30.85;;;;;;;;;;8268514;28;20124;-75
2021/12/30 09:07:58;;;;;;;73.20;33.25;;;;;;;;;;8262079;28;20105;-76
2021/12/30 09:12:01;;;;;;;78.30;38.40;;;;;;;;;;8268486;28;20043;-75
2021/12/30 09:16:08;;;;;;;75.80;33.58;;;;;;;;;;8269073;28;20129;-73
2021/12/30 09:20:13;;;;;;;66.63;30.70;;;;;;;;;;8268313;28;20054;-76
2021/12/30 09:24:19;;;;;;;67.38;29.33;;;;;;;;;;8263823;28;20045;-76
2021/12/30 09:28:24;;;;;;;81.90;33.20;;;;;;;;;;8261668;28;20046;-76
2021/12/30 09:32:28;;;;;;;73.38;32.15;;;;;;;;;;8268874;28;20406;-78
2021/12/30 09:36:36;;;;;;;66.07;29.77;;;;;;;;;;8268960;28;20428;-77
2021/12/30 09:40:45;;;;;;;65.32;28.48;;;;;;;;;;8257023;28;20055;-77
2021/12/30 09:44:48;;;;;;;81.95;35.47;;;;;;;;;;8236730;28;20043;-77
2021/12/30 09:48:52;;;;;;;62.35;29.85;;;;;;;;;;8263587;28;20113;-77
2021/12/30 09:52:55;;;;;;;59.85;29.33;;;;;;;;;;8268509;28;20077;-76
2021/12/30 09:57:00;;;;;;;68.60;34.92;;;;;;;;;;8261026;28;20092;-77
2021/12/30 10:01:07;;;;;;;62.92;29.25;;;;;;;;;;8261776;28;20130;-78
2021/12/30 10:05:13;;;;;;;53.40;26.58;;;;;;;;;;8252047;28;20442;-77
2021/12/30 10:09:17;;;;;;;56.83;26.60;;;;;;;;;;8244292;28;20043;-76
2021/12/30 10:13:44;;;;;;;53.38;25.92;;;;;;;;;;8235676;28;20055;-77
2021/12/30 10:17:56;;;;;;;68.85;32.30;;;;;;;;;;8247397;28;20236;-77
2021/12/30 10:22:10;;;;;;;55.30;27.63;;;;;;;;;;8258197;28;20073;-76
2021/12/30 10:26:20;;;;;;;55.28;26.27;;;;;;;;;;8244003;28;20050;-75
2021/12/30 10:30:35;;;;;;;56.67;25.58;;;;;;;;;;8265973;28;20405;-75
2021/12/30 10:35:06;;;;;;;63.05;28.48;;;;;;;;;;8261690;28;20109;-76
2021/12/30 10:39:21;;;;;;;60.47;30.35;;;;;;;;;;8265761;28;20081;-76
2021/12/30 10:43:29;;;;;;;63.55;28.63;;;;;;;;;;8265711;28;20077;-76
2021/12/30 10:47:57;;;;;;;54.40;28.13;;;;;;;;;;8260448;28;20098;-76
2021/12/30 10:52:07;;;;;;;65.55;32.45;;;;;;;;;;8177130;28;20043;-75
2021/12/30 10:56:31;;;;;;;60.53;29.48;;;;;;;;;;8192109;29;20126;-75
2021/12/30 11:00:36;;;;;;;61.90;27.40;;;;;;;;;;8202218;28;20078;-75
2021/12/30 11:04:42;;;;;;;54.03;26.92;;;;;;;;;;8201446;28;20078;-76
2021/12/30 11:08:47;;;;;;;57.30;29.00;;;;;;;;;;8189898;29;20039;-73
2021/12/30 11:12:50;;;;;;;58.17;27.35;;;;;;;;;;8201435;28;20480;-75
2021/12/30 11:17:15;;;;;;;63.78;30.92;;;;;;;;;;8192459;28;20492;-75
2021/12/30 11:21:39;;;;;;;71.25;29.65;;;;;;;;;;8192621;29;20054;-75
2021/12/30 11:25:43;;;;;;;53.63;25.75;;;;;;;;;;8188839;29;20050;-75
2021/12/30 11:29:47;;;;;;;71.57;31.95;;;;;;;;;;8194379;28;20055;-76
2021/12/30 11:33:50;;;;;;;128.13;51.15;;;;;;;;;;8169496;29;20056;-75
2021/12/30 11:37:56;;;;;;;58.22;28.92;;;;;;;;;;8180543;29;20054;-74
2021/12/30 11:42:03;;;;;;;53.45;28.38;;;;;;;;;;8180782;29;20411;-75
2021/12/30 11:46:07;;;;;;;55.70;25.85;;;;;;;;;;8176141;29;20051;-75
2021/12/30 11:50:18;;;;;;;50.97;26.23;;;;;;;;;;8210954;28;20145;-75
2021/12/30 11:54:40;;;;;;;57.47;29.00;;;;;;;;;;8241511;28;20043;-75
2021/12/30 11:58:52;;;;;;;62.45;30.45;;;;;;;;;;8243947;28;20057;-75
2021/12/30 12:03:02;;;;;;;69.57;32.75;;;;;;;;;;8247811;28;20108;-76
2021/12/30 12:07:22;;;;;;;62.05;28.88;;;;;;;;;;8265041;28;20057;-76
2021/12/30 12:11:57;;;;;;;63.10;28.40;;;;;;;;;;8237298;28;20142;-76
2021/12/30 12:16:18;;;;;;;78.22;34.08;;;;;;;;;;8250787;28;20070;-76
2021/12/30 12:20:37;;;;;;;82.78;35.40;;;;;;;;;;8237006;28;20533;-75
2021/12/30 12:24:50;;;;;;;71.90;31.33;;;;;;;;;;8232793;28;20051;-75
2021/12/30 12:29:27;;;;;;;69.32;30.10;;;;;;;;;;8257262;28;20046;-76
2021/12/30 12:33:41;;;;;;;74.45;36.13;;;;;;;;;;8257688;28;20038;-75
2021/12/30 12:38:00;;;;;;;86.82;39.25;;;;;;;;;;8258377;28;20627;-75
2021/12/30 12:42:08;;;;;;;94.78;43.05;;;;;;;;;;8252867;28;20074;-76
2021/12/30 12:46:12;;;;;;;66.22;29.80;;;;;;;;;;8255673;28;20057;-76
2021/12/30 12:50:16;;;;;;;67.32;30.88;;;;;;;;;;8261328;28;20062;-77
2021/12/30 12:54:37;;;;;;;111.80;42.17;;;;;;;;;;8259387;28;20038;-77
2021/12/30 12:58:42;;;;;;;77.78;31.48;;;;;;;;;;8261106;28;20065;-77
2021/12/30 13:02:48;;;;;;;76.93;31.88;;;;;;;;;;8262556;28;20078;-76
2021/12/30 13:06:51;;;;;;;89.38;34.05;;;;;;;;;;8263566;28;20050;-76
2021/12/30 13:10:55;;;;;;;79.93;32.38;;;;;;;;;;8264973;28;20071;-75
2021/12/30 13:14:58;;;;;;;101.28;42.50;;;;;;;;;;8264157;28;20411;-74
2021/12/30 13:19:15;;;;;;;90.78;37.17;;;;;;;;;;8263131;28;20110;-74
2021/12/30 13:23:29;;;;;;;93.78;37.33;;;;;;;;;;8247980;28;20075;-76
2021/12/30 13:27:34;;;;;;;105.60;41.78;;;;;;;;;;8265150;28;20393;-76
2021/12/30 13:31:41;;;;;;;175.05;66.45;;;;;;;;;;8262627;28;20139;-75
2021/12/30 13:35:48;;;;;;;193.93;79.50;;;;;;;;;;8266827;28;20609;-75
2021/12/30 13:39:55;;;;;;;120.85;48.10;;;;;;;;;;8266975;28;20050;-76
2021/12/30 13:44:08;;;;;;;118.10;50.95;;;;;;;;;;8260125;28;20097;-78
2021/12/30 13:48:20;;;;;;;107.38;41.47;;;;;;;;;;8261770;28;20421;-75
2021/12/30 13:52:29;;;;;;;79.13;34.00;;;;;;;;;;8256830;28;20051;-76
2021/12/30 13:56:32;;;;;;;123.00;47.25;;;;;;;;;;8266077;28;20054;-75
2021/12/30 14:00:41;;;;;;;85.95;37.33;;;;;;;;;;8257316;28;20042;-75
2021/12/30 14:04:43;;;;;;;73.22;29.65;;;;;;;;;;8262013;28;20046;-77
2021/12/30 14:08:52;;;;;;;74.93;29.60;;;;;;;;;;8260067;28;20047;-76
2021/12/30 14:12:57;;;;;;;85.90;34.60;;;;;;;;;;8266840;28;20051;-78
2021/12/30 14:17:03;;;;;;;84.22;33.80;;;;;;;;;;8266257;28;20052;-75
2021/12/30 14:21:09;;;;;;;55.80;24.55;;;;;;;;;;8259883;28;20055;-76
2021/12/30 14:25:35;;;;;;;58.92;27.10;;;;;;;;;;8263946;28;20065;-77
2021/12/30 14:29:51;;;;;;;56.78;22.73;;;;;;;;;;8265069;28;20077;-78
2021/12/30 14:34:15;;;;;;;67.53;27.42;;;;;;;;;;8265945;28;20049;-76
2021/12/30 14:38:33;;;;;;;61.35;25.83;;;;;;;;;;8267352;28;20092;-77
2021/12/30 14:42:39;;;;;;;65.55;26.10;;;;;;;;;;8265944;28;20498;-77
2021/12/30 14:46:44;;;;;;;66.63;26.70;;;;;;;;;;8267427;28;20050;-77
2021/12/30 14:50:51;;;;;;;65.32;25.67;;;;;;;;;;8266452;28;20133;-77
2021/12/30 14:54:57;;;;;;;70.63;26.38;;;;;;;;;;8266420;28;20050;-78
2021/12/30 14:59:07;;;;;;;114.77;42.17;;;;;;;;;;8265018;28;20062;-76
2021/12/30 15:03:10;;;;;;;94.13;33.78;;;;;;;;;;8267396;28;20444;-77
2021/12/30 15:07:18;;;;;;;107.00;31.42;;;;;;;;;;8259558;28;20129;-76
2021/12/30 15:11:28;;;;;;;125.70;35.03;;;;;;;;;;8236713;28;20059;-76
2021/12/30 15:15:42;;;;;;;212.27;37.45;;;;;;;;;;8242746;28;20043;-76
2021/12/30 15:19:54;;;;;;;104.75;36.70;;;;;;;;;;8265796;28;20061;-77
2021/12/30 15:24:09;;;;;;;153.85;33.08;;;;;;;;;;8256321;28;20061;-76
2021/12/30 15:28:33;;;;;;;200.88;36.25;;;;;;;;;;8238087;28;20156;-77
2021/12/30 15:33:10;;;;;;;350.98;41.88;;;;;;;;;;8264669;28;20050;-77
2021/12/30 15:37:28;;;;;;;272.45;60.13;;;;;;;;;;8265312;28;20046;-76
2021/12/30 15:41:41;;;;;;;117.93;24.10;;;;;;;;;;8259681;28;20042;-77
2021/12/30 15:51:00;;;;;;;102.57;26.33;;;;;;;;;;8232531;28;20059;-77
2021/12/30 15:55:20;;;;;;;116.88;29.75;;;;;;;;;;8232975;28;20042;-78
2021/12/30 15:59:26;;;;;;;123.10;32.15;;;;;;;;;;8230518;28;20046;-76
2021/12/30 16:03:31;;;;;;;274.92;53.20;;;;;;;;;;8230030;28;20078;-78
2021/12/30 16:07:39;;;;;;;166.75;42.30;;;;;;;;;;8217380;28;20402;-78
2021/12/30 16:11:42;;;;;;;140.55;37.05;;;;;;;;;;8233207;28;20051;-76
2021/12/30 16:15:46;;;;;;;399.13;46.92;;;;;;;;;;8225642;28;20410;-77
2021/12/30 16:19:50;;;;;;;181.18;40.67;;;;;;;;;;8217005;28;20051;-77
2021/12/30 16:23:57;;;;;;;474.90;89.72;;;;;;;;;;8225072;28;20469;-77
2021/12/30 16:28:07;;;;;;;364.08;39.90;;;;;;;;;;8222989;28;20110;-78
2021/12/30 16:32:16;;;;;;;557.85;84.82;;;;;;;;;;8207042;29;20051;-77
2021/12/30 16:36:23;;;;;;;432.13;93.72;;;;;;;;;;8206504;29;20047;-77
2021/12/30 16:40:29;;;;;;;464.40;96.88;;;;;;;;;;8206867;28;20055;-76
2021/12/30 16:44:38;;;;;;;124.65;35.20;;;;;;;;;;8217952;28;20051;-77
2021/12/30 16:48:56;;;;;;;356.50;50.25;;;;;;;;;;8206147;29;20063;-77
2021/12/30 16:53:18;;;;;;;491.05;92.68;;;;;;;;;;8205913;28;20082;-77
2021/12/30 16:57:34;;;;;;;;;;;;;;;;;;8206604;28;20051;-76
2021/12/30 17:01:43;;;;;;;366.30;79.70;;;;;;;;;;8229550;28;20018;-77
2021/12/30 17:06:16;;;;;;;126.38;27.85;;;;;;;;;;8231754;28;20051;-78
2021/12/30 17:10:26;;;;;;;111.07;30.38;;;;;;;;;;8230893;28;20469;-77
2021/12/30 17:14:34;;;;;;;157.30;41.03;;;;;;;;;;8234804;28;20051;-77
2021/12/30 17:18:37;;;;;;;115.43;37.47;;;;;;;;;;8235256;28;20051;-76
2021/12/30 17:22:44;;;;;;;111.30;35.38;;;;;;;;;;8213738;28;20079;-76
2021/12/30 17:26:47;;;;;;;214.65;51.85;;;;;;;;;;8221844;28;20051;-77
2021/12/30 17:30:54;;;;;;;129.55;30.52;;;;;;;;;;8231307;28;20057;-77
2021/12/30 17:34:57;;;;;;;107.78;32.30;;;;;;;;;;8223989;28;20090;-77
2021/12/30 17:39:00;;;;;;;116.57;34.13;;;;;;;;;;8229064;28;20126;-78
2021/12/30 17:43:04;;;;;;;148.10;40.65;;;;;;;;;;8232464;28;20066;-76
2021/12/30 17:47:09;;;;;;;203.27;65.25;;;;;;;;;;8230399;28;20047;-77
2021/12/30 17:51:13;;;;;;;101.88;29.92;;;;;;;;;;8232072;28;20055;-77
2021/12/30 17:55:18;;;;;;;102.10;31.40;;;;;;;;;;8234437;28;20050;-78
2021/12/30 17:59:21;;;;;;;103.13;31.45;;;;;;;;;;8230884;28;20471;-77
2021/12/30 18:03:26;;;;;;;90.28;29.08;;;;;;;;;;8227145;28;20410;-77
2021/12/30 18:07:29;;;;;;;74.57;27.67;;;;;;;;;;8210164;28;20073;-77
2021/12/30 18:11:34;;;;;;;97.40;32.85;;;;;;;;;;8231600;28;20054;-77
2021/12/30 18:15:42;;;;;;;98.55;35.67;;;;;;;;;;8234521;28;20043;-78
2021/12/30 18:19:57;;;;;;;81.10;29.88;;;;;;;;;;8223181;28;20510;-77
2021/12/30 18:24:03;;;;;;;89.38;32.40;;;;;;;;;;8228947;28;20125;-77
2021/12/30 18:28:07;;;;;;;92.72;35.15;;;;;;;;;;8219461;28;20078;-77
2021/12/30 18:32:14;;;;;;;83.05;30.77;;;;;;;;;;8219982;28;20407;-76
2021/12/30 18:36:19;;;;;;;84.28;30.52;;;;;;;;;;8218154;28;20146;-76
2021/12/30 18:40:29;;;;;;;247.68;74.82;;;;;;;;;;8206448;28;20049;-77
2021/12/30 18:44:33;;;;;;;165.77;51.88;;;;;;;;;;8207735;28;20104;-77
2021/12/30 18:48:37;;;;;;;105.88;33.03;;;;;;;;;;8206075;28;20055;-79
2021/12/30 18:52:42;;;;;;;58.65;24.75;;;;;;;;;;8210554;28;20082;-77
2021/12/30 18:56:46;;;;;;;72.45;25.15;;;;;;;;;;8226673;28;20145;-76
2021/12/30 19:00:52;;;;;;;121.03;38.88;;;;;;;;;;8228684;28;20078;-76
2021/12/30 19:04:57;;;;;;;117.97;37.45;;;;;;;;;;8226782;28;20054;-77
2021/12/30 19:09:04;;;;;;;957.10;113.57;;;;;;;;;;8227258;28;20042;-76
2021/12/30 19:13:12;;;;;;;110.15;36.35;;;;;;;;;;8222895;28;20725;-77
2021/12/30 19:17:16;;;;;;;78.63;28.30;;;;;;;;;;8219541;28;20047;-76
2021/12/30 19:21:21;;;;;;;155.30;46.20;;;;;;;;;;8230329;28;20051;-79
2021/12/30 19:25:27;;;;;;;209.93;59.03;;;;;;;;;;8225798;28;20065;-77
2021/12/30 19:29:32;;;;;;;142.55;43.88;;;;;;;;;;8229946;28;20154;-77
2021/12/30 19:33:36;;;;;;;94.97;32.55;;;;;;;;;;8230915;28;20390;-77
2021/12/30 19:37:43;;;;;;;101.25;35.58;;;;;;;;;;8231438;28;20190;-77
2021/12/30 19:41:51;;;;;;;71.75;26.88;;;;;;;;;;8231841;28;20086;-77
2021/12/30 19:45:58;;;;;;;93.68;31.13;;;;;;;;;;8231446;28;20138;-76
2021/12/30 19:50:05;;;;;;;145.13;44.33;;;;;;;;;;8231624;28;20074;-77
2021/12/30 19:54:14;;;;;;;68.55;27.70;;;;;;;;;;8230077;28;20080;-76
2021/12/30 19:58:20;;;;;;;102.13;33.50;;;;;;;;;;8231888;28;20074;-77
2021/12/30 20:02:23;;;;;;;76.88;31.23;;;;;;;;;;8232559;28;20042;-78
2021/12/30 20:06:26;;;;;;;175.93;48.28;;;;;;;;;;8231748;28;20050;-76
2021/12/30 20:10:33;;;;;;;108.63;42.47;;;;;;;;;;8232877;28;20057;-76
2021/12/30 20:14:37;;;;;;;103.35;38.92;;;;;;;;;;8222642;28;20059;-76
2021/12/30 20:18:44;;;;;;;115.95;49.35;;;;;;;;;;8231880;28;20526;-75
2021/12/30 20:22:55;;;;;;;113.70;41.00;;;;;;;;;;8231658;28;20051;-77
2021/12/30 20:27:07;;;;;;;106.55;41.17;;;;;;;;;;8232742;28;20444;-76
2021/12/30 20:31:14;;;;;;;99.38;38.72;;;;;;;;;;8232668;28;20113;-76
2021/12/30 20:35:24;;;;;;;106.75;39.83;;;;;;;;;;8233845;28;20406;-75
2021/12/30 20:39:34;;;;;;;134.35;46.55;;;;;;;;;;8232852;28;20050;-76
2021/12/30 20:43:42;;;;;;;101.70;39.30;;;;;;;;;;8231921;28;20117;-76
2021/12/30 20:47:51;;;;;;;135.35;50.53;;;;;;;;;;8232813;28;20106;-76
2021/12/30 20:52:05;;;;;;;107.25;37.10;;;;;;;;;;8232516;28;20565;-76
2021/12/30 20:56:14;;;;;;;114.45;41.45;;;;;;;;;;8231988;28;20128;-76
2021/12/30 21:00:20;;;;;;;90.22;36.00;;;;;;;;;;8232157;28;20043;-77
2021/12/30 21:04:28;;;;;;;113.05;43.85;;;;;;;;;;8232429;28;20058;-76
2021/12/30 21:08:33;;;;;;;141.73;46.78;;;;;;;;;;8238371;28;20065;-77
2021/12/30 21:12:37;;;;;;;110.80;44.50;;;;;;;;;;8238063;28;20055;-76
2021/12/30 21:16:40;;;;;;;159.30;52.65;;;;;;;;;;8237587;28;20082;-77
2021/12/30 21:20:46;;;;;;;82.28;30.67;;;;;;;;;;8237456;28;20047;-77
2021/12/30 21:24:50;;;;;;;107.53;36.83;;;;;;;;;;8237022;28;20050;-79
2021/12/30 21:28:54;;;;;;;87.07;31.85;;;;;;;;;;8236997;28;20061;-76
2021/12/30 21:33:00;;;;;;;124.90;40.47;;;;;;;;;;8236863;28;20065;-77
2021/12/30 21:37:05;;;;;;;102.80;34.53;;;;;;;;;;8236768;28;20068;-76
2021/12/30 21:41:09;;;;;;;77.63;26.17;;;;;;;;;;8236518;28;20047;-76
2021/12/30 21:45:13;;;;;;;87.20;29.67;;;;;;;;;;8236697;28;20042;-77
2021/12/30 21:49:15;;;;;;;72.97;28.00;;;;;;;;;;8236720;28;20074;-78
2021/12/30 21:53:23;;;;;;;92.82;30.33;;;;;;;;;;8235929;28;20513;-78
2021/12/30 21:57:26;;;;;;;72.03;27.50;;;;;;;;;;8236372;28;20085;-77
2021/12/30 22:01:30;;;;;;;89.20;28.75;;;;;;;;;;8236185;28;20051;-80
2021/12/30 22:05:36;;;;;;;99.85;30.27;;;;;;;;;;8236015;28;20407;-80
2021/12/30 22:09:40;;;;;;;78.13;25.88;;;;;;;;;;8235901;28;20071;-80
2021/12/30 22:13:43;;;;;;;93.90;30.90;;;;;;;;;;8235932;28;20097;-77
2021/12/30 22:17:46;;;;;;;94.20;33.97;;;;;;;;;;8234589;28;20078;-77
2021/12/30 22:21:48;;;;;;;79.30;27.65;;;;;;;;;;8235903;28;20050;-77
2021/12/30 22:25:54;;;;;;;77.03;27.25;;;;;;;;;;8235799;28;20046;-77
2021/12/30 22:29:56;;;;;;;66.75;23.88;;;;;;;;;;8235695;28;20630;-77
2021/12/30 22:34:00;;;;;;;67.85;23.55;;;;;;;;;;8235040;28;20050;-76
2021/12/30 22:38:02;;;;;;;62.25;24.38;;;;;;;;;;8235182;28;20046;-77
2021/12/30 22:42:08;;;;;;;107.40;32.97;;;;;;;;;;8232124;28;20038;-78
2021/12/30 22:46:11;;;;;;;211.60;29.70;;;;;;;;;;8228789;28;20118;-76
2021/12/30 22:50:15;;;;;;;78.55;25.40;;;;;;;;;;8228256;28;20495;-77
2021/12/30 22:54:19;;;;;;;113.50;23.88;;;;;;;;;;8228254;28;20047;-76
2021/12/30 22:58:23;;;;;;;106.18;38.97;;;;;;;;;;8228368;28;20447;-76
2021/12/30 23:02:26;;;;;;;96.22;35.20;;;;;;;;;;8226944;28;20054;-76
2021/12/30 23:06:29;;;;;;;62.40;20.77;;;;;;;;;;8227958;28;20038;-77
2021/12/30 23:10:32;;;;;;;207.40;26.70;;;;;;;;;;8229647;28;20546;-77
2021/12/30 23:14:36;;;;;;;75.22;24.35;;;;;;;;;;8227168;28;20050;-78
2021/12/30 23:18:39;;;;;;;69.72;23.90;;;;;;;;;;8228022;28;20050;-76
2021/12/30 23:22:42;;;;;;;53.25;20.80;;;;;;;;;;8228963;28;20479;-76
2021/12/30 23:26:45;;;;;;;65.55;21.52;;;;;;;;;;8227695;28;20061;-76
2021/12/30 23:30:50;;;;;;;122.95;21.77;;;;;;;;;;8227483;28;20479;-77
2021/12/30 23:34:52;;;;;;;45.20;18.17;;;;;;;;;;8227309;28;20392;-77
2021/12/30 23:38:55;;;;;;;37.50;14.13;;;;;;;;;;8229112;28;20105;-77
2021/12/30 23:42:57;;;;;;;40.83;16.05;;;;;;;;;;8226767;28;20065;-80
2021/12/30 23:47:02;;;;;;;42.75;17.63;;;;;;;;;;8226289;28;20050;-78
2021/12/30 23:51:04;;;;;;;37.80;14.95;;;;;;;;;;8226075;28;20100;-79